Time;durP1;ratioP1;P1;durP2;ratioP2;P2;SDS_P1;SDS_P2;PMS_P1;PMS_P2;Temp;Humidity;BMP_temperature;BMP_pressure;BME280_temperature;BME280_humidity;BME280_pressure;Samples;Min_cycle;Max_cycle;Signal;HPM_P1;HPM_P2
2023/03/12 00:02:09;;;;;;;0.90;0.90;;;;;;;;;;4994787;28;20203;-86
2023/03/12 00:04:37;;;;;;;0.90;0.90;;;;;;;;;;4995538;28;20203;-85
2023/03/12 00:07:07;;;;;;;0.90;0.90;;;;;;;;;;4995070;28;20208;-87
2023/03/12 00:09:36;;;;;;;1.00;1.00;;;;;;;;;;4994458;28;20275;-86
2023/03/12 00:12:05;;;;;;;1.20;1.20;;;;;;;;;;4994223;28;20190;-86
2023/03/12 00:14:34;;;;;;;0.90;0.90;;;;;;;;;;4994449;28;20210;-87
2023/03/12 00:17:02;;;;;;;0.80;0.80;;;;;;;;;;4994199;28;20207;-83
2023/03/12 00:19:31;;;;;;;0.90;0.90;;;;;;;;;;4993965;28;20295;-87
2023/03/12 00:21:59;;;;;;;0.90;0.90;;;;;;;;;;4998279;28;20202;-81
2023/03/12 00:24:29;;;;;;;4.67;4.43;;;;;;;;;;4997453;28;20195;-81
2023/03/12 00:26:57;;;;;;;0.90;0.90;;;;;;;;;;4997724;28;20207;-81
2023/03/12 00:29:26;;;;;;;0.90;0.90;;;;;;;;;;4997393;28;20255;-80
2023/03/12 00:31:54;;;;;;;0.93;0.93;;;;;;;;;;4997741;28;20202;-81
2023/03/12 00:34:22;;;;;;;0.90;0.90;;;;;;;;;;4997757;28;20241;-81
2023/03/12 00:36:51;;;;;;;0.90;0.90;;;;;;;;;;4996994;28;20223;-81
2023/03/12 00:39:19;;;;;;;0.80;0.80;;;;;;;;;;4997933;28;20293;-81
2023/03/12 00:41:49;;;;;;;0.90;0.90;;;;;;;;;;4997639;28;20204;-81
2023/03/12 00:44:17;;;;;;;2.20;2.20;;;;;;;;;;4997898;28;20229;-81
2023/03/12 00:46:46;;;;;;;0.90;0.90;;;;;;;;;;4997369;28;20256;-81
2023/03/12 00:49:14;;;;;;;0.90;0.90;;;;;;;;;;4997127;28;20216;-80
2023/03/12 00:51:42;;;;;;;0.90;0.90;;;;;;;;;;4997323;28;20211;-80
2023/03/12 00:54:11;;;;;;;0.90;0.90;;;;;;;;;;4997003;28;20208;-80
2023/03/12 00:56:39;;;;;;;0.90;0.90;;;;;;;;;;4997225;28;20207;-80
2023/03/12 00:59:09;;;;;;;0.90;0.90;;;;;;;;;;4997974;28;20203;-85
2023/03/12 01:01:37;;;;;;;3.03;2.93;;;;;;;;;;4997729;28;20202;-86
2023/03/12 01:04:06;;;;;;;0.90;0.90;;;;;;;;;;4997368;28;20230;-87
2023/03/12 01:06:34;;;;;;;1.43;1.43;;;;;;;;;;4997981;28;20401;-87
2023/03/12 01:09:04;;;;;;;0.80;0.80;;;;;;;;;;4997155;28;20250;-86
2023/03/12 01:11:33;;;;;;;0.90;0.90;;;;;;;;;;4996857;28;20263;-86
2023/03/12 01:14:01;;;;;;;0.90;0.90;;;;;;;;;;4997029;28;20199;-86
2023/03/12 01:16:31;;;;;;;0.80;0.80;;;;;;;;;;4996986;28;20214;-86
2023/03/12 01:19:00;;;;;;;0.90;0.90;;;;;;;;;;4996531;28;20201;-86
2023/03/12 01:21:30;;;;;;;0.90;0.90;;;;;;;;;;4996756;28;20230;-86
2023/03/12 01:23:58;;;;;;;1.57;1.57;;;;;;;;;;4998320;28;20211;-86
2023/03/12 01:26:27;;;;;;;0.90;0.90;;;;;;;;;;4997371;28;20203;-87
2023/03/12 01:28:55;;;;;;;0.90;0.90;;;;;;;;;;4997375;28;20230;-86
2023/03/12 01:31:24;;;;;;;0.90;0.90;;;;;;;;;;4996541;28;20225;-86
2023/03/12 01:33:54;;;;;;;0.90;0.90;;;;;;;;;;4997211;28;20212;-86
2023/03/12 01:36:23;;;;;;;0.90;0.90;;;;;;;;;;4997358;28;20202;-86
2023/03/12 01:38:52;;;;;;;0.87;0.87;;;;;;;;;;4997697;28;20204;-87
2023/03/12 01:41:21;;;;;;;0.90;0.90;;;;;;;;;;4996705;28;20261;-86
2023/03/12 01:43:50;;;;;;;0.90;0.90;;;;;;;;;;4996966;28;20198;-86
2023/03/12 01:46:24;;;;;;;1.20;1.20;;;;;;;;;;4997293;28;20207;-86
2023/03/12 01:48:58;;;;;;;0.90;0.90;;;;;;;;;;4996742;28;20229;-85
2023/03/12 01:51:27;;;;;;;0.90;0.90;;;;;;;;;;4996886;28;20292;-86
2023/03/12 01:53:58;;;;;;;0.93;0.93;;;;;;;;;;4996191;28;20299;-81
2023/03/12 01:56:28;;;;;;;1.20;1.20;;;;;;;;;;4996112;28;20205;-80
2023/03/12 01:58:59;;;;;;;0.90;0.90;;;;;;;;;;4996570;28;20225;-86
2023/03/12 02:01:28;;;;;;;0.90;0.90;;;;;;;;;;4996718;28;20202;-86
2023/03/12 02:03:59;;;;;;;1.00;1.00;;;;;;;;;;4996350;28;20202;-86
2023/03/12 02:06:31;;;;;;;1.00;1.00;;;;;;;;;;4997286;28;20236;-87
2023/03/12 02:09:01;;;;;;;0.90;0.90;;;;;;;;;;4996056;28;20281;-87
2023/03/12 02:11:30;;;;;;;1.00;1.00;;;;;;;;;;4996081;28;20275;-86
2023/03/12 02:13:58;;;;;;;1.00;1.00;;;;;;;;;;4996323;28;20269;-86
2023/03/12 02:16:26;;;;;;;1.10;1.10;;;;;;;;;;4996224;28;20297;-87
2023/03/12 02:18:56;;;;;;;1.00;1.00;;;;;;;;;;4996231;28;20198;-86
2023/03/12 02:21:28;;;;;;;1.00;1.00;;;;;;;;;;4996429;28;20211;-82
2023/03/12 02:24:01;;;;;;;1.00;1.00;;;;;;;;;;4995108;28;20336;-81
2023/03/12 02:26:31;;;;;;;1.10;1.10;;;;;;;;;;4994851;28;20233;-81
2023/03/12 02:29:00;;;;;;;1.00;1.00;;;;;;;;;;4995315;28;20233;-80
2023/03/12 02:31:32;;;;;;;0.90;0.90;;;;;;;;;;4995770;28;20203;-81
2023/03/12 02:34:00;;;;;;;1.00;1.00;;;;;;;;;;4995541;28;20200;-81
2023/03/12 02:36:29;;;;;;;1.00;1.00;;;;;;;;;;4995574;28;20252;-80
2023/03/12 02:38:57;;;;;;;0.97;0.97;;;;;;;;;;4995488;28;20230;-80
2023/03/12 02:41:27;;;;;;;0.90;0.90;;;;;;;;;;4995056;28;20314;-81
2023/03/12 02:44:00;;;;;;;0.90;0.90;;;;;;;;;;4994003;28;20243;-81
2023/03/12 02:46:29;;;;;;;0.90;0.90;;;;;;;;;;4995002;28;20244;-80
2023/03/12 02:48:58;;;;;;;0.97;0.97;;;;;;;;;;4994740;28;20274;-81
2023/03/12 02:51:27;;;;;;;0.90;0.90;;;;;;;;;;4995102;28;20289;-81
2023/03/12 02:53:55;;;;;;;0.90;0.90;;;;;;;;;;4995170;28;20217;-81
2023/03/12 02:56:24;;;;;;;0.90;0.90;;;;;;;;;;4995944;28;20251;-86
2023/03/12 02:58:53;;;;;;;0.90;0.90;;;;;;;;;;4995691;28;20210;-86
2023/03/12 03:01:23;;;;;;;1.00;1.00;;;;;;;;;;4995858;28;20200;-82
2023/03/12 03:03:52;;;;;;;0.90;0.90;;;;;;;;;;4995051;28;20265;-81
2023/03/12 03:06:21;;;;;;;0.97;0.97;;;;;;;;;;4994985;28;20225;-80
2023/03/12 03:08:50;;;;;;;0.90;0.90;;;;;;;;;;4995079;28;20204;-81
2023/03/12 03:11:23;;;;;;;1.10;1.10;;;;;;;;;;4994475;28;20242;-81
2023/03/12 03:13:51;;;;;;;0.90;0.90;;;;;;;;;;4994744;28;20206;-81
2023/03/12 03:16:20;;;;;;;0.90;0.90;;;;;;;;;;4995593;28;20207;-84
2023/03/12 03:18:50;;;;;;;1.00;1.00;;;;;;;;;;4994971;28;20206;-86
2023/03/12 03:21:19;;;;;;;1.00;1.00;;;;;;;;;;4995128;28;20200;-87
2023/03/12 03:23:48;;;;;;;0.90;0.90;;;;;;;;;;4994381;28;20199;-81
2023/03/12 03:26:18;;;;;;;0.90;0.90;;;;;;;;;;4994317;28;20301;-80
2023/03/12 03:28:47;;;;;;;0.90;0.90;;;;;;;;;;4993870;28;20227;-81
2023/03/12 03:31:16;;;;;;;0.90;0.90;;;;;;;;;;4993474;28;20241;-81
2023/03/12 03:33:44;;;;;;;0.90;0.90;;;;;;;;;;4993896;28;20208;-81
2023/03/12 03:36:15;;;;;;;0.90;0.90;;;;;;;;;;4994174;28;20245;-80
2023/03/12 03:38:48;;;;;;;0.90;0.90;;;;;;;;;;4993904;28;20212;-86
2023/03/12 03:41:16;;;;;;;1.00;1.00;;;;;;;;;;4994472;28;20227;-87
2023/03/12 03:43:45;;;;;;;1.00;1.00;;;;;;;;;;4994368;28;20234;-86
2023/03/12 03:46:14;;;;;;;0.90;0.90;;;;;;;;;;4994678;28;20236;-86
2023/03/12 03:48:43;;;;;;;0.90;0.90;;;;;;;;;;4994070;28;20307;-87
2023/03/12 03:51:12;;;;;;;1.00;1.00;;;;;;;;;;4994180;28;20326;-86
2023/03/12 03:53:42;;;;;;;0.90;0.90;;;;;;;;;;4994169;28;20254;-86
2023/03/12 03:56:11;;;;;;;0.90;0.90;;;;;;;;;;5000394;28;20206;-86
2023/03/12 03:58:40;;;;;;;0.90;0.90;;;;;;;;;;5000899;28;20209;-87
2023/03/12 04:01:08;;;;;;;0.90;0.90;;;;;;;;;;5001392;28;20231;-87
2023/03/12 04:03:36;;;;;;;0.90;0.90;;;;;;;;;;5001139;28;20253;-86
2023/03/12 04:06:06;;;;;;;0.90;0.90;;;;;;;;;;5000880;28;20222;-86
2023/03/12 04:08:35;;;;;;;1.30;1.30;;;;;;;;;;5000300;28;20284;-85
2023/03/12 04:11:09;;;;;;;18.20;15.50;;;;;;;;;;5000470;28;20242;-87
2023/03/12 04:13:38;;;;;;;50.47;19.57;;;;;;;;;;5000838;28;20241;-87
2023/03/12 04:16:06;;;;;;;14.93;12.63;;;;;;;;;;5000585;28;20212;-86
2023/03/12 04:18:35;;;;;;;14.87;12.33;;;;;;;;;;5000676;28;20268;-85
2023/03/12 04:21:04;;;;;;;11.63;9.47;;;;;;;;;;5000800;28;20199;-86
2023/03/12 04:23:33;;;;;;;12.73;10.37;;;;;;;;;;4999896;28;20222;-80
2023/03/12 04:26:01;;;;;;;12.17;8.40;;;;;;;;;;5000115;28;20245;-81
2023/03/12 04:28:31;;;;;;;9.60;8.27;;;;;;;;;;4999820;28;20241;-80
2023/03/12 04:31:00;;;;;;;8.77;7.90;;;;;;;;;;4999146;28;20214;-81
2023/03/12 04:33:29;;;;;;;8.83;6.67;;;;;;;;;;5000400;28;20205;-87
2023/03/12 04:35:58;;;;;;;7.90;7.10;;;;;;;;;;5000223;28;20249;-86
2023/03/12 04:38:27;;;;;;;9.63;6.30;;;;;;;;;;5000737;28;20209;-86
2023/03/12 04:40:59;;;;;;;6.87;6.10;;;;;;;;;;5000651;28;20230;-86
2023/03/12 04:43:28;;;;;;;10.13;6.73;;;;;;;;;;5000534;28;20217;-86
2023/03/12 04:45:58;;;;;;;14.80;6.80;;;;;;;;;;5000632;28;20237;-81
2023/03/12 04:48:26;;;;;;;10.53;6.57;;;;;;;;;;5000123;28;20230;-81
2023/03/12 04:50:55;;;;;;;11.87;6.93;;;;;;;;;;4999971;28;20221;-81
2023/03/12 04:53:23;;;;;;;6.27;5.67;;;;;;;;;;5000435;28;20203;-81
2023/03/12 04:55:52;;;;;;;7.10;5.73;;;;;;;;;;5000224;28;20210;-80
2023/03/12 04:58:21;;;;;;;9.03;6.37;;;;;;;;;;5000073;28;20209;-81
2023/03/12 05:00:50;;;;;;;6.77;6.17;;;;;;;;;;4999955;28;20230;-80
2023/03/12 05:03:20;;;;;;;7.17;6.47;;;;;;;;;;4999994;28;20206;-81
2023/03/12 05:05:48;;;;;;;8.80;6.93;;;;;;;;;;4998817;28;20204;-80
2023/03/12 05:08:17;;;;;;;5.37;4.87;;;;;;;;;;4996282;28;20217;-80
2023/03/12 05:10:45;;;;;;;7.23;5.93;;;;;;;;;;4996260;28;20362;-80
2023/03/12 05:13:15;;;;;;;11.37;7.23;;;;;;;;;;4996763;28;20490;-80
2023/03/12 05:15:43;;;;;;;7.77;6.43;;;;;;;;;;4996633;28;20233;-80
2023/03/12 05:18:11;;;;;;;7.40;6.57;;;;;;;;;;4996612;28;20228;-81
2023/03/12 05:20:41;;;;;;;7.80;7.00;;;;;;;;;;4996792;28;20203;-80
2023/03/12 05:23:09;;;;;;;8.70;6.90;;;;;;;;;;4996162;28;20242;-81
2023/03/12 05:25:39;;;;;;;9.30;6.80;;;;;;;;;;4996294;28;20273;-80
2023/03/12 05:28:08;;;;;;;13.57;7.00;;;;;;;;;;4996527;28;20201;-80
2023/03/12 05:30:36;;;;;;;7.43;6.70;;;;;;;;;;4996171;28;20296;-81
2023/03/12 05:33:05;;;;;;;8.80;7.10;;;;;;;;;;4996147;28;20209;-86
2023/03/12 05:35:33;;;;;;;8.17;7.23;;;;;;;;;;4996583;28;20241;-85
2023/03/12 05:38:03;;;;;;;8.30;7.43;;;;;;;;;;4996888;28;20300;-86
2023/03/12 05:40:31;;;;;;;7.17;6.20;;;;;;;;;;4996749;28;20219;-86
2023/03/12 05:43:00;;;;;;;10.23;8.27;;;;;;;;;;4996542;28;20223;-86
2023/03/12 05:45:28;;;;;;;9.77;8.50;;;;;;;;;;4997075;28;20206;-87
2023/03/12 05:47:57;;;;;;;11.10;8.20;;;;;;;;;;4996674;28;20269;-86
2023/03/12 05:50:26;;;;;;;8.60;7.73;;;;;;;;;;4996408;28;20223;-86
2023/03/12 05:52:55;;;;;;;7.93;7.23;;;;;;;;;;4997181;28;20311;-81
2023/03/12 05:55:24;;;;;;;9.23;8.30;;;;;;;;;;4996313;28;20207;-81
2023/03/12 05:57:53;;;;;;;15.10;7.10;;;;;;;;;;4996358;28;20246;-80
2023/03/12 06:00:21;;;;;;;9.93;9.03;;;;;;;;;;4996175;28;20216;-81
2023/03/12 06:02:50;;;;;;;12.80;9.53;;;;;;;;;;4996516;28;20233;-87
2023/03/12 06:05:18;;;;;;;11.50;9.57;;;;;;;;;;4996677;28;20206;-81
2023/03/12 06:07:47;;;;;;;13.27;11.77;;;;;;;;;;4996328;28;20240;-81
2023/03/12 06:10:16;;;;;;;14.33;12.87;;;;;;;;;;4996624;28;20210;-87
2023/03/12 06:12:46;;;;;;;19.37;15.67;;;;;;;;;;4996773;28;20320;-87
2023/03/12 06:15:14;;;;;;;15.57;13.63;;;;;;;;;;4997028;28;20245;-86
2023/03/12 06:17:42;;;;;;;17.43;16.03;;;;;;;;;;4996626;28;20205;-86
2023/03/12 06:20:11;;;;;;;20.67;18.67;;;;;;;;;;4996706;28;20213;-85
2023/03/12 06:22:39;;;;;;;19.03;17.30;;;;;;;;;;4996459;28;20403;-86
2023/03/12 06:25:08;;;;;;;25.40;23.00;;;;;;;;;;4995968;28;20209;-85
2023/03/12 06:27:37;;;;;;;23.30;21.03;;;;;;;;;;4995186;28;20207;-86
2023/03/12 06:30:07;;;;;;;31.73;28.03;;;;;;;;;;4995894;28;20242;-86
2023/03/12 06:32:36;;;;;;;32.03;24.70;;;;;;;;;;4996493;28;20229;-85
2023/03/12 06:35:04;;;;;;;27.57;24.67;;;;;;;;;;4995945;28;20202;-86
2023/03/12 06:37:33;;;;;;;31.03;27.77;;;;;;;;;;4996234;28;20233;-85
2023/03/12 06:40:02;;;;;;;32.80;29.23;;;;;;;;;;4994762;28;20254;-86
2023/03/12 06:42:31;;;;;;;31.73;28.50;;;;;;;;;;4995108;28;20200;-86
2023/03/12 06:44:59;;;;;;;38.73;34.73;;;;;;;;;;4994947;28;20210;-86
2023/03/12 06:47:29;;;;;;;39.97;35.70;;;;;;;;;;4995065;28;20229;-87
2023/03/12 06:49:57;;;;;;;38.73;34.53;;;;;;;;;;4994678;28;20293;-87
2023/03/12 06:52:26;;;;;;;34.83;31.50;;;;;;;;;;4994347;28;20250;-87
2023/03/12 06:54:54;;;;;;;31.63;27.37;;;;;;;;;;4995149;28;20215;-86
2023/03/12 06:57:22;;;;;;;23.20;20.60;;;;;;;;;;4994504;28;20251;-86
2023/03/12 06:59:51;;;;;;;33.87;30.20;;;;;;;;;;4995174;28;20304;-83
2023/03/12 07:02:19;;;;;;;37.60;34.50;;;;;;;;;;4995135;28;20206;-86
2023/03/12 07:04:49;;;;;;;33.77;30.27;;;;;;;;;;4995162;28;20240;-86
2023/03/12 07:07:18;;;;;;;36.67;31.27;;;;;;;;;;4995744;28;20218;-86
2023/03/12 07:09:47;;;;;;;33.30;29.80;;;;;;;;;;4995575;28;20215;-84
2023/03/12 07:12:15;;;;;;;30.20;22.30;;;;;;;;;;4994793;28;20233;-86
2023/03/12 07:14:44;;;;;;;33.57;29.97;;;;;;;;;;4995731;28;20210;-86
2023/03/12 07:17:12;;;;;;;27.97;25.07;;;;;;;;;;4995017;28;20296;-81
2023/03/12 07:19:40;;;;;;;33.77;30.70;;;;;;;;;;4994931;28;20217;-81
2023/03/12 07:22:10;;;;;;;32.47;29.63;;;;;;;;;;4994645;28;20213;-80
2023/03/12 07:24:38;;;;;;;31.83;28.83;;;;;;;;;;4993907;28;20294;-81
2023/03/12 07:27:07;;;;;;;34.47;31.27;;;;;;;;;;4994766;28;20209;-81
2023/03/12 07:29:35;;;;;;;36.37;33.03;;;;;;;;;;4994228;28;20271;-81
2023/03/12 07:32:04;;;;;;;30.87;27.60;;;;;;;;;;4994336;28;20403;-81
2023/03/12 07:34:33;;;;;;;36.63;32.97;;;;;;;;;;4994435;28;20226;-81
2023/03/12 07:37:02;;;;;;;41.37;37.37;;;;;;;;;;4994753;28;20208;-81
2023/03/12 07:39:31;;;;;;;43.17;38.77;;;;;;;;;;4994910;28;20210;-81
2023/03/12 07:42:03;;;;;;;46.43;41.67;;;;;;;;;;4994495;28;20202;-81
2023/03/12 07:44:32;;;;;;;47.57;41.87;;;;;;;;;;4994357;28;20200;-81
2023/03/12 07:47:03;;;;;;;50.17;40.13;;;;;;;;;;4994072;28;20221;-81
2023/03/12 07:49:50;;;;;;;48.07;40.23;;;;;;;;;;4994516;28;20241;-81
2023/03/12 07:52:19;;;;;;;57.60;51.50;;;;;;;;;;4994553;28;20216;-81
2023/03/12 07:54:51;;;;;;;54.30;47.90;;;;;;;;;;4994467;28;20207;-81
2023/03/12 07:57:20;;;;;;;51.17;33.77;;;;;;;;;;4994227;28;20206;-81
2023/03/12 07:59:48;;;;;;;60.67;45.93;;;;;;;;;;4994281;28;20206;-81
2023/03/12 08:02:17;;;;;;;67.67;61.37;;;;;;;;;;4993859;28;20207;-81
2023/03/12 08:04:45;;;;;;;55.90;38.40;;;;;;;;;;4994038;28;20209;-81
2023/03/12 08:07:14;;;;;;;69.03;52.53;;;;;;;;;;4994608;28;20238;-81
2023/03/12 08:09:42;;;;;;;26.37;19.30;;;;;;;;;;4993822;28;20204;-81
2023/03/12 08:12:12;;;;;;;65.63;53.73;;;;;;;;;;4994375;28;20238;-86
2023/03/12 08:14:41;;;;;;;60.03;48.03;;;;;;;;;;4993978;28;20229;-86
2023/03/12 08:17:10;;;;;;;50.80;37.07;;;;;;;;;;4994569;28;20213;-86
2023/03/12 08:19:39;;;;;;;55.27;41.73;;;;;;;;;;4994870;28;20270;-87
2023/03/12 08:22:08;;;;;;;59.30;50.73;;;;;;;;;;4994519;28;20252;-86
2023/03/12 08:24:36;;;;;;;54.00;44.77;;;;;;;;;;4994535;28;20307;-87
2023/03/12 08:27:04;;;;;;;38.87;30.07;;;;;;;;;;4994484;28;20298;-86
2023/03/12 08:29:34;;;;;;;55.57;47.60;;;;;;;;;;4993438;28;20204;-80
2023/03/12 08:32:02;;;;;;;40.87;28.03;;;;;;;;;;4992978;28;20208;-81
2023/03/12 08:34:33;;;;;;;26.47;17.37;;;;;;;;;;4993464;28;20211;-81
2023/03/12 08:37:04;;;;;;;47.77;36.37;;;;;;;;;;4993713;28;20209;-80
2023/03/12 08:39:32;;;;;;;28.13;18.00;;;;;;;;;;4993841;28;20207;-81
2023/03/12 08:42:00;;;;;;;54.07;45.50;;;;;;;;;;4994721;28;20206;-81
2023/03/12 08:44:29;;;;;;;58.43;50.07;;;;;;;;;;4997133;28;20200;-81
2023/03/12 08:46:59;;;;;;;65.73;53.30;;;;;;;;;;4997153;28;20231;-81
2023/03/12 08:49:27;;;;;;;64.77;49.30;;;;;;;;;;4997194;28;20214;-81
2023/03/12 08:51:55;;;;;;;63.37;40.67;;;;;;;;;;4997492;28;20243;-81
2023/03/12 08:54:24;;;;;;;64.63;42.77;;;;;;;;;;4997369;28;20200;-81
2023/03/12 08:56:52;;;;;;;39.80;22.33;;;;;;;;;;4997038;28;20232;-80
2023/03/12 08:59:22;;;;;;;19.80;13.03;;;;;;;;;;4997391;28;20295;-86
2023/03/12 09:01:50;;;;;;;51.73;32.70;;;;;;;;;;4997634;28;20204;-86
2023/03/12 09:04:20;;;;;;;35.03;16.87;;;;;;;;;;4997766;28;20208;-87
2023/03/12 09:06:48;;;;;;;36.23;17.87;;;;;;;;;;4997505;28;20235;-87
2023/03/12 09:09:17;;;;;;;54.87;26.00;;;;;;;;;;4997130;28;20242;-81
2023/03/12 09:11:45;;;;;;;13.27;7.17;;;;;;;;;;4996612;28;20290;-81
2023/03/12 09:14:13;;;;;;;6.50;6.10;;;;;;;;;;4996728;28;20256;-80
2023/03/12 09:17:02;;;;;;;20.27;8.67;;;;;;;;;;4996364;28;20211;-81
2023/03/12 09:19:32;;;;;;;64.40;33.70;;;;;;;;;;4996835;28;20204;-81
2023/03/12 09:22:00;;;;;;;24.97;12.70;;;;;;;;;;4996574;28;20304;-81
2023/03/12 09:24:29;;;;;;;46.80;19.80;;;;;;;;;;4996299;28;20200;-81
2023/03/12 09:26:57;;;;;;;33.40;17.83;;;;;;;;;;4996532;28;20208;-81
2023/03/12 09:29:25;;;;;;;45.77;24.27;;;;;;;;;;4997565;28;20220;-86
2023/03/12 09:31:54;;;;;;;44.43;22.03;;;;;;;;;;4997668;28;20203;-87
2023/03/12 09:34:22;;;;;;;22.27;11.67;;;;;;;;;;4997495;28;20227;-83
2023/03/12 09:36:52;;;;;;;26.60;14.23;;;;;;;;;;4996493;28;20200;-85
2023/03/12 09:39:21;;;;;;;26.50;11.87;;;;;;;;;;4996652;28;20233;-87
2023/03/12 09:41:50;;;;;;;22.07;9.67;;;;;;;;;;4997127;28;20219;-87
2023/03/12 09:44:21;;;;;;;21.97;10.23;;;;;;;;;;4997724;28;20395;-86
2023/03/12 09:46:51;;;;;;;20.23;7.40;;;;;;;;;;4997527;28;20208;-87
2023/03/12 09:49:23;;;;;;;26.67;9.37;;;;;;;;;;4997475;28;20308;-87
2023/03/12 09:51:54;;;;;;;25.67;11.43;;;;;;;;;;4997130;28;20213;-86
2023/03/12 09:54:27;;;;;;;14.17;7.53;;;;;;;;;;4996641;28;20287;-87
2023/03/12 09:56:56;;;;;;;11.80;5.37;;;;;;;;;;4996407;28;20220;-86
2023/03/12 09:59:24;;;;;;;17.20;6.00;;;;;;;;;;4996738;28;20265;-87
2023/03/12 10:01:56;;;;;;;26.00;6.63;;;;;;;;;;4996478;28;20200;-87
2023/03/12 10:04:28;;;;;;;20.47;8.67;;;;;;;;;;4996631;28;20203;-81
2023/03/12 10:07:02;;;;;;;16.83;7.30;;;;;;;;;;4995755;28;20202;-81
2023/03/12 10:09:40;;;;;;;22.20;7.00;;;;;;;;;;4995364;28;20262;-81
2023/03/12 10:12:15;;;;;;;20.70;8.33;;;;;;;;;;4995267;28;20275;-81
2023/03/12 10:14:52;;;;;;;16.27;5.80;;;;;;;;;;4995338;28;20255;-81
2023/03/12 10:17:27;;;;;;;23.80;10.73;;;;;;;;;;4996104;28;20215;-81
2023/03/12 10:20:06;;;;;;;15.87;7.40;;;;;;;;;;4995449;28;20224;-81
2023/03/12 10:22:45;;;;;;;9.57;3.73;;;;;;;;;;4995161;28;20205;-81
2023/03/12 10:25:16;;;;;;;21.40;6.83;;;;;;;;;;4995553;28;20235;-80
2023/03/12 10:27:45;;;;;;;10.40;5.00;;;;;;;;;;4995241;28;20255;-81
2023/03/12 10:30:17;;;;;;;11.83;4.87;;;;;;;;;;4995349;28;20282;-81
2023/03/12 10:32:49;;;;;;;24.67;7.13;;;;;;;;;;4995312;28;20292;-81
2023/03/12 10:35:18;;;;;;;22.23;7.83;;;;;;;;;;4994728;28;20232;-80
2023/03/12 10:37:52;;;;;;;10.23;4.40;;;;;;;;;;4995265;28;20201;-81
2023/03/12 10:40:21;;;;;;;19.97;7.17;;;;;;;;;;4995415;28;20225;-81
2023/03/12 10:42:50;;;;;;;19.87;5.50;;;;;;;;;;4995083;28;20208;-81
2023/03/12 10:45:23;;;;;;;15.70;5.43;;;;;;;;;;4995236;28;20297;-81
2023/03/12 10:47:56;;;;;;;15.40;6.27;;;;;;;;;;4995155;28;20206;-81
2023/03/12 10:50:26;;;;;;;18.03;4.30;;;;;;;;;;4994558;28;20205;-81
2023/03/12 10:53:12;;;;;;;12.77;4.67;;;;;;;;;;4994775;28;20222;-81
2023/03/12 10:55:40;;;;;;;24.40;7.13;;;;;;;;;;4994853;28;20197;-81
2023/03/12 10:58:22;;;;;;;10.97;5.20;;;;;;;;;;4994999;28;20293;-81
2023/03/12 11:00:56;;;;;;;12.77;5.20;;;;;;;;;;4995149;28;20269;-81
2023/03/12 11:03:25;;;;;;;20.83;8.27;;;;;;;;;;4994675;28;20229;-81
2023/03/12 11:05:55;;;;;;;13.00;5.00;;;;;;;;;;4995124;28;20470;-80
2023/03/12 11:08:27;;;;;;;14.17;6.13;;;;;;;;;;4994680;28;20250;-81
2023/03/12 11:10:55;;;;;;;12.27;4.47;;;;;;;;;;4994655;28;20341;-81
2023/03/12 11:13:25;;;;;;;20.27;4.57;;;;;;;;;;4995294;28;20217;-86
2023/03/12 11:15:54;;;;;;;16.17;4.47;;;;;;;;;;4995242;28;20203;-87
2023/03/12 11:18:28;;;;;;;13.87;4.83;;;;;;;;;;4995480;28;20211;-88
2023/03/12 11:20:57;;;;;;;12.47;5.13;;;;;;;;;;4995149;28;20211;-87
2023/03/12 11:23:29;;;;;;;24.03;4.87;;;;;;;;;;4995578;28;20221;-86
2023/03/12 11:25:59;;;;;;;8.77;6.47;;;;;;;;;;4995343;28;20202;-87
2023/03/12 11:28:35;;;;;;;4.93;3.73;;;;;;;;;;4995065;28;20297;-87
2023/03/12 11:31:03;;;;;;;23.77;6.47;;;;;;;;;;4995052;28;20213;-87
2023/03/12 11:33:32;;;;;;;16.50;6.27;;;;;;;;;;4994667;28;20329;-87
2023/03/12 11:36:08;;;;;;;8.93;4.97;;;;;;;;;;4994107;28;20218;-81
2023/03/12 11:38:40;;;;;;;26.93;8.60;;;;;;;;;;4993750;28;20207;-81
2023/03/12 11:41:12;;;;;;;12.77;5.33;;;;;;;;;;4994068;28;20224;-81
2023/03/12 11:43:53;;;;;;;15.50;6.30;;;;;;;;;;4994284;28;20210;-81
2023/03/12 11:46:27;;;;;;;14.50;5.00;;;;;;;;;;4993616;28;20223;-81
2023/03/12 11:49:02;;;;;;;15.83;4.43;;;;;;;;;;4994204;28;20251;-80
2023/03/12 11:51:42;;;;;;;13.00;4.10;;;;;;;;;;4993495;28;20213;-81
2023/03/12 11:54:21;;;;;;;10.53;3.70;;;;;;;;;;4994078;28;20274;-79
2023/03/12 11:56:52;;;;;;;14.43;5.90;;;;;;;;;;4994372;28;20209;-78
2023/03/12 11:59:35;;;;;;;18.40;7.07;;;;;;;;;;4993196;28;20188;-79
2023/03/12 12:02:13;;;;;;;16.87;6.37;;;;;;;;;;4994462;28;20207;-85
2023/03/12 12:04:50;;;;;;;18.20;5.07;;;;;;;;;;4994903;28;20278;-86
2023/03/12 12:07:24;;;;;;;7.20;3.87;;;;;;;;;;4995018;28;20234;-87
2023/03/12 12:09:55;;;;;;;14.40;3.97;;;;;;;;;;4994475;28;20207;-86
2023/03/12 12:12:34;;;;;;;25.80;6.13;;;;;;;;;;4994188;28;20267;-84
2023/03/12 12:15:07;;;;;;;12.63;3.70;;;;;;;;;;4994422;28;20255;-87
2023/03/12 12:17:45;;;;;;;18.40;5.30;;;;;;;;;;4998218;28;20234;-84
2023/03/12 12:20:28;;;;;;;17.40;6.27;;;;;;;;;;4998448;28;20211;-86
2023/03/12 12:23:02;;;;;;;19.70;5.10;;;;;;;;;;4998681;28;20227;-86
2023/03/12 12:25:39;;;;;;;27.70;9.53;;;;;;;;;;4998220;28;20227;-87
2023/03/12 12:28:23;;;;;;;22.03;5.67;;;;;;;;;;4998371;28;20277;-87
2023/03/12 12:30:55;;;;;;;14.97;5.70;;;;;;;;;;4995723;28;20368;-86
2023/03/12 12:33:30;;;;;;;22.37;6.83;;;;;;;;;;4998247;28;20187;-87
2023/03/12 12:35:59;;;;;;;22.77;6.53;;;;;;;;;;4997631;28;20247;-87
2023/03/12 12:38:30;;;;;;;18.70;5.07;;;;;;;;;;4997932;28;20234;-87
2023/03/12 12:41:04;;;;;;;12.00;5.20;;;;;;;;;;4997803;28;20223;-87
2023/03/12 12:43:34;;;;;;;17.13;4.43;;;;;;;;;;4998267;28;20325;-86
2023/03/12 12:46:05;;;;;;;23.60;6.03;;;;;;;;;;4997582;28;20218;-86
2023/03/12 12:48:36;;;;;;;25.50;8.97;;;;;;;;;;4996938;28;20340;-87
2023/03/12 12:51:04;;;;;;;13.63;5.00;;;;;;;;;;4997151;28;20239;-87
2023/03/12 12:53:39;;;;;;;20.93;6.13;;;;;;;;;;4997693;28;20212;-87
2023/03/12 12:56:16;;;;;;;30.40;8.60;;;;;;;;;;4997433;28;20218;-86
2023/03/12 12:58:50;;;;;;;20.33;6.87;;;;;;;;;;4997384;28;20200;-87
2023/03/12 13:01:18;;;;;;;22.73;7.50;;;;;;;;;;4997432;28;20295;-87
2023/03/12 13:03:47;;;;;;;20.27;5.60;;;;;;;;;;4997455;28;20203;-88
2023/03/12 13:06:16;;;;;;;24.53;4.97;;;;;;;;;;4997111;28;20200;-81
2023/03/12 13:09:14;;;;;;;35.37;7.90;;;;;;;;;;4996677;28;20303;-81
2023/03/12 13:11:47;;;;;;;23.63;6.80;;;;;;;;;;4996592;28;20239;-81
2023/03/12 13:14:20;;;;;;;25.03;7.17;;;;;;;;;;4996840;28;20205;-81
2023/03/12 13:16:49;;;;;;;18.27;5.60;;;;;;;;;;4996468;28;20260;-81
2023/03/12 13:19:25;;;;;;;14.20;5.57;;;;;;;;;;4996248;28;20245;-81
2023/03/12 13:22:00;;;;;;;25.37;6.57;;;;;;;;;;4996508;28;20258;-81
2023/03/12 13:24:31;;;;;;;15.40;5.40;;;;;;;;;;4996213;28;20245;-81
2023/03/12 13:27:05;;;;;;;15.20;5.20;;;;;;;;;;4996215;28;20275;-81
2023/03/12 13:29:38;;;;;;;21.50;6.20;;;;;;;;;;4996187;28;20233;-81
2023/03/12 13:32:09;;;;;;;16.33;6.70;;;;;;;;;;4996450;28;20203;-81
2023/03/12 13:34:46;;;;;;;11.67;4.77;;;;;;;;;;4996014;28;20208;-81
2023/03/12 13:37:36;;;;;;;19.17;4.63;;;;;;;;;;4996157;28;20242;-81
2023/03/12 13:40:26;;;;;;;18.13;5.23;;;;;;;;;;4990262;28;20258;-81
2023/03/12 13:43:06;;;;;;;10.77;5.27;;;;;;;;;;4995303;28;20214;-81
2023/03/12 13:45:40;;;;;;;15.47;4.93;;;;;;;;;;4995905;28;20230;-81
2023/03/12 13:48:14;;;;;;;29.23;8.33;;;;;;;;;;4995538;28;20298;-81
2023/03/12 13:50:50;;;;;;;31.57;6.07;;;;;;;;;;4995800;28;20235;-81
2023/03/12 13:53:23;;;;;;;26.27;6.13;;;;;;;;;;4995597;28;20200;-81
2023/03/12 13:56:00;;;;;;;23.47;7.50;;;;;;;;;;4995917;28;20223;-81
2023/03/12 13:58:30;;;;;;;16.33;7.30;;;;;;;;;;4995593;28;20371;-80
2023/03/12 14:01:02;;;;;;;23.90;8.37;;;;;;;;;;4995592;28;20246;-81
2023/03/12 14:03:32;;;;;;;25.50;7.57;;;;;;;;;;4995867;28;20200;-81
2023/03/12 14:06:06;;;;;;;20.43;6.53;;;;;;;;;;4996149;28;20206;-81
2023/03/12 14:08:43;;;;;;;20.60;7.07;;;;;;;;;;4996037;28;20200;-81
2023/03/12 14:11:24;;;;;;;18.27;4.77;;;;;;;;;;4995830;28;20263;-81
2023/03/12 14:14:03;;;;;;;15.03;5.43;;;;;;;;;;4995510;28;20298;-81
2023/03/12 14:16:35;;;;;;;11.80;4.30;;;;;;;;;;4995844;28;20287;-81
2023/03/12 14:19:04;;;;;;;21.57;11.20;;;;;;;;;;4995882;28;20258;-81
2023/03/12 14:21:34;;;;;;;37.03;7.10;;;;;;;;;;4995508;28;20215;-81
2023/03/12 14:24:03;;;;;;;17.60;6.53;;;;;;;;;;4995509;28;20253;-79
2023/03/12 14:26:33;;;;;;;24.00;5.57;;;;;;;;;;4995162;28;20200;-79
2023/03/12 14:29:05;;;;;;;27.07;9.73;;;;;;;;;;4995452;28;20236;-79
2023/03/12 14:31:33;;;;;;;19.37;4.73;;;;;;;;;;4995211;28;20204;-79
2023/03/12 14:34:04;;;;;;;17.00;6.03;;;;;;;;;;4995404;28;20260;-79
2023/03/12 14:36:38;;;;;;;23.27;7.17;;;;;;;;;;4994784;28;20247;-79
2023/03/12 14:39:10;;;;;;;23.73;6.63;;;;;;;;;;4995352;28;20301;-79
2023/03/12 14:41:42;;;;;;;15.93;5.67;;;;;;;;;;4994686;28;20283;-79
2023/03/12 14:44:20;;;;;;;22.97;6.13;;;;;;;;;;4995191;28;20206;-79
2023/03/12 14:46:56;;;;;;;30.53;6.03;;;;;;;;;;4995270;28;20286;-79
2023/03/12 14:49:24;;;;;;;22.40;6.23;;;;;;;;;;4994914;28;20274;-79
2023/03/12 14:51:53;;;;;;;23.60;7.30;;;;;;;;;;4995216;28;20246;-79